首页
METAR-TAF:

METAR-TAF

机场 :

Kbely

布拉格, 捷克共和国

纬度: 50-07-17N, 经度: 14-32-37E, 海拔: 286米

当前天气观测

该预报发布于29分钟前的15:00 UTC
风速7节,风向东北,在之间变化
温度 26°C
湿度 48%
气压 1015 hPa
能见度10公里或以上
1500米以下无云,无积雨云

METAR: LKKB 181500Z 05007KT 010V090 CAVOK 26/14 Q1015 NOSIG

时间: 17:29 (15:29 UTC)

预报

该预报发布于4小时和29分钟前的11:00 UTC
预报有效从18日的 12点(UTC)到 19日的 12点(UTC)
风速6节,风向东转东北
能见度10公里或以上
散云层高于4500英尺
短暂存在
从 18日的 12点(UTC)到 18日的 18点(UTC)
风速12节,风向东转东南
成为
从 18日的 16点(UTC)到 18日的 18点(UTC)
风速6节,风向东南
能见度10公里或以上
1500米以下无云,无积雨云
成为
从 19日的 08点(UTC)到 19日的 10点(UTC)
多云层高于3500英尺
短暂存在
从 19日的 10点(UTC)到 19日的 12点(UTC)
风速15节,风向西转西南,有时为25节阵风
能見度: 6000
散云层高于3000英尺, 塔状积云.
多云层高于4500英尺
阵雨

TAF: LKKB 181100Z 1812/1912 06006KT 9999 SCT045 TEMPO 1812/1818 12012KT BECMG 1816/1818 14006KT CAVOK BECMG 1908/1910 BKN035 TEMPO 1910/1912 25015G25KT 6000 SHRA SCT030TCU BKN045

超过4000个机场的气象观测和天气预报(METAR&TAF报告)。

可查询的气象台以黄色和红色小点在地图上表示。

将鼠标移到小点上方,可查看气象台名称。

然后点击查看天气观测和预报。

如需切换地图:点击带黑十字的绿色按钮放大地图;点击带横线的绿色按钮缩小地图;或者点击绿色箭头查看邻近地区的地图。


METAR-TAF: